createdAt,value
2022-08-28T00:00:26.963Z,16.01
2022-08-28T00:01:27.130Z,15.97
2022-08-28T00:02:27.082Z,15.95
2022-08-28T00:03:26.864Z,15.92
2022-08-28T00:04:27.091Z,15.90
2022-08-28T00:05:26.959Z,15.84
2022-08-28T00:06:26.867Z,15.82
2022-08-28T00:07:27.113Z,15.77
2022-08-28T00:08:26.853Z,15.72
2022-08-28T00:09:27.012Z,15.67
2022-08-28T00:10:26.831Z,15.64
2022-08-28T00:11:26.940Z,15.62
2022-08-28T00:12:26.864Z,15.55
2022-08-28T00:13:26.942Z,15.51
2022-08-28T00:14:26.975Z,15.51
2022-08-28T00:15:26.878Z,15.47
2022-08-28T00:16:26.808Z,15.46
2022-08-28T00:17:27.171Z,15.46
2022-08-28T00:18:26.751Z,15.40
2022-08-28T00:19:26.941Z,15.36
2022-08-28T00:20:26.758Z,15.31
2022-08-28T00:21:26.689Z,15.27
2022-08-28T00:22:26.865Z,15.25
2022-08-28T00:23:42.585Z,15.24
2022-08-28T00:24:26.917Z,15.24
2022-08-28T00:25:26.757Z,15.25
2022-08-28T00:26:26.697Z,15.19
2022-08-28T00:27:27.089Z,15.14
2022-08-28T00:28:26.686Z,15.09
2022-08-28T00:29:26.618Z,15.06
2022-08-28T00:30:26.604Z,15.02
2022-08-28T00:31:26.748Z,14.97
2022-08-28T00:32:26.813Z,14.92
2022-08-28T00:33:26.647Z,14.89
2022-08-28T00:34:32.866Z,14.89
2022-08-28T00:35:26.726Z,14.89
2022-08-28T00:36:26.574Z,14.86
2022-08-28T00:37:26.566Z,14.85
2022-08-28T00:38:26.748Z,14.82
2022-08-28T00:39:26.469Z,14.78
2022-08-28T00:40:28.783Z,14.73
2022-08-28T00:41:27.528Z,14.69
2022-08-28T00:42:26.449Z,14.70
2022-08-28T00:43:26.479Z,14.72
2022-08-28T00:44:26.697Z,14.70
2022-08-28T00:45:26.544Z,14.69
2022-08-28T00:46:26.481Z,14.66
2022-08-28T00:47:26.537Z,14.66
2022-08-28T00:48:26.597Z,14.63
2022-08-28T00:49:26.486Z,14.62
2022-08-28T00:50:26.506Z,14.62
2022-08-28T00:51:26.761Z,14.65
2022-08-28T00:52:26.521Z,14.66
2022-08-28T00:53:27.155Z,14.68
2022-08-28T00:54:26.574Z,14.69
2022-08-28T00:55:26.600Z,14.72
2022-08-28T00:56:26.388Z,14.70
2022-08-28T00:57:27.049Z,14.73
2022-08-28T00:58:26.362Z,14.73
2022-08-28T00:59:26.583Z,14.73
2022-08-28T01:00:26.491Z,14.72
2022-08-28T01:01:26.500Z,14.69
2022-08-28T01:02:26.704Z,14.68
2022-08-28T01:03:26.556Z,14.69
2022-08-28T01:04:26.453Z,14.70
2022-08-28T01:05:26.263Z,14.69
2022-08-28T01:06:26.190Z,14.70
2022-08-28T01:07:26.480Z,14.69
2022-08-28T01:08:26.191Z,14.70
2022-08-28T01:09:26.293Z,14.78
2022-08-28T01:10:26.362Z,14.81
2022-08-28T01:11:26.511Z,14.84
2022-08-28T01:12:26.172Z,14.88
2022-08-28T01:13:26.325Z,14.94
2022-08-28T01:14:26.534Z,14.97
2022-08-28T01:15:26.291Z,15.00
2022-08-28T01:16:31.670Z,14.99
2022-08-28T01:17:26.276Z,14.97
2022-08-28T01:18:26.095Z,14.92
2022-08-28T01:19:26.169Z,14.89
2022-08-28T01:20:26.128Z,14.89
2022-08-28T01:21:26.190Z,14.89
2022-08-28T01:22:26.206Z,14.85
2022-08-28T01:23:26.069Z,14.86
2022-08-28T01:24:26.154Z,14.86
2022-08-28T01:25:26.012Z,14.86
2022-08-28T01:26:26.225Z,14.84
2022-08-28T01:27:26.106Z,14.84
2022-08-28T01:28:26.102Z,14.84
2022-08-28T01:29:26.158Z,14.84
2022-08-28T01:30:25.981Z,14.82
2022-08-28T01:31:26.088Z,14.79
2022-08-28T01:32:26.066Z,14.78
2022-08-28T01:33:28.287Z,14.77
2022-08-28T01:34:26.023Z,14.77
2022-08-28T01:35:25.962Z,14.73
2022-08-28T01:36:26.043Z,14.73
2022-08-28T01:37:25.941Z,14.73
2022-08-28T01:38:26.951Z,14.73
2022-08-28T01:39:25.930Z,14.72
2022-08-28T01:40:25.821Z,14.73
2022-08-28T01:41:26.305Z,14.77
2022-08-28T01:42:26.065Z,14.77
2022-08-28T01:43:25.849Z,14.79
2022-08-28T01:44:25.926Z,14.81
2022-08-28T01:45:25.997Z,14.82
2022-08-28T01:46:25.890Z,14.81
2022-08-28T01:47:25.954Z,14.84
2022-08-28T01:48:25.815Z,14.84
2022-08-28T01:49:26.021Z,14.81
2022-08-28T01:50:25.869Z,14.82
2022-08-28T01:51:25.822Z,14.79
2022-08-28T01:52:26.471Z,14.77
2022-08-28T01:53:25.786Z,14.78
2022-08-28T01:54:25.730Z,14.73
2022-08-28T01:55:26.043Z,14.72
2022-08-28T01:56:25.687Z,14.70
2022-08-28T01:57:25.719Z,14.70
2022-08-28T01:58:25.770Z,14.70
2022-08-28T01:59:25.710Z,14.69
2022-08-28T02:00:25.735Z,14.66
2022-08-28T02:01:25.760Z,14.65
2022-08-28T02:02:25.882Z,14.65
2022-08-28T02:03:25.711Z,14.62
2022-08-28T02:04:31.662Z,14.62
2022-08-28T02:05:25.612Z,14.59
2022-08-28T02:06:25.596Z,14.54
2022-08-28T02:07:25.574Z,14.51
2022-08-28T02:08:25.722Z,14.47
2022-08-28T02:09:25.596Z,14.44
2022-08-28T02:10:25.635Z,14.44
2022-08-28T02:11:25.471Z,14.43
2022-08-28T02:12:25.612Z,14.45
2022-08-28T02:13:25.605Z,14.43
2022-08-28T02:14:25.524Z,14.41
2022-08-28T02:15:25.463Z,14.41
2022-08-28T02:16:25.430Z,14.40
2022-08-28T02:17:25.416Z,14.40
2022-08-28T02:18:25.477Z,14.40
2022-08-28T02:19:25.511Z,14.36
2022-08-28T02:20:25.539Z,14.36
2022-08-28T02:21:25.365Z,14.35
2022-08-28T02:22:25.334Z,14.35
2022-08-28T02:23:25.559Z,14.36
2022-08-28T02:24:25.690Z,14.35
2022-08-28T02:25:25.466Z,14.33
2022-08-28T02:26:25.453Z,14.35
2022-08-28T02:27:25.325Z,14.36
2022-08-28T02:28:25.359Z,14.37
2022-08-28T02:29:25.305Z,14.36
2022-08-28T02:30:25.252Z,14.37
2022-08-28T02:31:25.313Z,14.36
2022-08-28T02:32:25.240Z,14.37
2022-08-28T02:33:25.229Z,14.37
2022-08-28T02:34:25.205Z,14.37
2022-08-28T02:35:25.169Z,14.37
2022-08-28T02:36:25.177Z,14.36
2022-08-28T02:37:25.124Z,14.36
2022-08-28T02:38:25.179Z,14.33
2022-08-28T02:39:25.133Z,14.35
2022-08-28T02:40:25.146Z,14.35
2022-08-28T02:41:25.175Z,14.33
2022-08-28T02:42:25.090Z,14.33
2022-08-28T02:43:25.141Z,14.29
2022-08-28T02:44:25.102Z,14.29
2022-08-28T02:45:25.073Z,14.28
2022-08-28T02:46:25.118Z,14.26
2022-08-28T02:47:25.095Z,14.23
2022-08-28T02:48:25.084Z,14.18
2022-08-28T02:49:25.016Z,14.14
2022-08-28T02:50:25.043Z,14.14
2022-08-28T02:51:25.020Z,14.14
2022-08-28T02:52:25.020Z,14.11
2022-08-28T02:53:25.038Z,14.10
2022-08-28T02:54:24.970Z,14.10
2022-08-28T02:55:24.940Z,14.08
2022-08-28T02:56:24.943Z,14.05
2022-08-28T02:57:24.943Z,14.07
2022-08-28T02:58:24.929Z,14.04
2022-08-28T02:59:24.943Z,14.04
2022-08-28T03:00:24.902Z,14.00
2022-08-28T03:01:24.971Z,13.99
2022-08-28T03:02:24.931Z,13.97
2022-08-28T03:03:24.921Z,13.95
2022-08-28T03:04:24.945Z,13.95
2022-08-28T03:05:24.885Z,13.90
2022-08-28T03:06:24.895Z,13.86
2022-08-28T03:07:24.829Z,13.83
2022-08-28T03:08:27.324Z,13.78
2022-08-28T03:09:24.820Z,13.71
2022-08-28T03:10:24.830Z,13.63
2022-08-28T03:11:24.802Z,13.56
2022-08-28T03:12:24.798Z,13.49
2022-08-28T03:13:27.029Z,13.38
2022-08-28T03:14:24.748Z,13.33
2022-08-28T03:15:24.754Z,13.30
2022-08-28T03:16:24.777Z,13.22
2022-08-28T03:17:24.736Z,13.19
2022-08-28T03:18:25.283Z,13.13
2022-08-28T03:19:24.710Z,13.11
2022-08-28T03:20:24.719Z,13.09
2022-08-28T03:21:24.689Z,13.09
2022-08-28T03:22:24.665Z,13.08
2022-08-28T03:23:24.655Z,13.08
2022-08-28T03:24:24.686Z,13.05
2022-08-28T03:25:24.621Z,13.11
2022-08-28T03:26:24.634Z,13.11
2022-08-28T03:27:24.667Z,13.12
2022-08-28T03:28:24.687Z,13.13
2022-08-28T03:29:24.621Z,13.12
2022-08-28T03:30:24.631Z,13.08
2022-08-28T03:31:24.589Z,13.04
2022-08-28T03:32:24.629Z,13.01
2022-08-28T03:33:24.538Z,12.97
2022-08-28T03:34:24.574Z,12.95
2022-08-28T03:35:24.536Z,12.91
2022-08-28T03:36:24.524Z,12.83
2022-08-28T03:37:24.487Z,12.79
2022-08-28T03:38:25.393Z,12.75
2022-08-28T03:39:24.512Z,12.72
2022-08-28T03:40:24.526Z,12.67
2022-08-28T03:41:24.484Z,12.65
2022-08-28T03:42:24.602Z,12.64
2022-08-28T03:43:24.452Z,12.65
2022-08-28T03:44:24.447Z,12.65
2022-08-28T03:45:24.408Z,12.64
2022-08-28T03:46:24.487Z,12.62
2022-08-28T03:47:24.416Z,12.60
2022-08-28T03:48:24.425Z,12.57
2022-08-28T03:49:24.375Z,12.55
2022-08-28T03:50:24.427Z,12.54
2022-08-28T03:51:29.600Z,12.50
2022-08-28T03:52:24.368Z,12.50
2022-08-28T03:53:24.364Z,12.42
2022-08-28T03:54:24.334Z,12.35
2022-08-28T03:55:24.401Z,12.29
2022-08-28T03:56:24.341Z,12.21
2022-08-28T03:57:24.292Z,12.15
2022-08-28T03:58:24.305Z,12.10
2022-08-28T03:59:26.656Z,12.07
2022-08-28T04:00:24.305Z,12.04
2022-08-28T04:01:24.247Z,11.99
2022-08-28T04:02:24.203Z,11.91
2022-08-28T04:03:24.218Z,11.86
2022-08-28T04:04:24.233Z,11.81
2022-08-28T04:05:24.192Z,11.73
2022-08-28T04:06:24.195Z,11.69
2022-08-28T04:07:24.136Z,11.68
2022-08-28T04:08:24.146Z,11.66
2022-08-28T04:09:24.104Z,11.66
2022-08-28T04:10:24.137Z,11.70
2022-08-28T04:11:24.120Z,11.72
2022-08-28T04:12:24.152Z,11.78
2022-08-28T04:13:24.138Z,11.77
2022-08-28T04:14:24.106Z,11.72
2022-08-28T04:15:24.044Z,11.73
2022-08-28T04:16:24.165Z,11.72
2022-08-28T04:17:24.048Z,11.73
2022-08-28T04:18:24.055Z,11.72
2022-08-28T04:19:24.018Z,11.72
2022-08-28T04:20:24.007Z,11.72
2022-08-28T04:21:24.077Z,11.72
2022-08-28T04:22:23.991Z,11.69
2022-08-28T04:23:23.951Z,11.66
2022-08-28T04:24:23.992Z,11.63
2022-08-28T04:25:23.996Z,11.65
2022-08-28T04:26:23.964Z,11.59
2022-08-28T04:27:23.979Z,11.59
2022-08-28T04:28:23.987Z,11.60
2022-08-28T04:29:23.958Z,11.60
2022-08-28T04:30:23.913Z,11.62
2022-08-28T04:31:31.750Z,11.65
2022-08-28T04:32:23.938Z,11.68
2022-08-28T04:33:23.864Z,11.69
2022-08-28T04:34:23.869Z,11.69
2022-08-28T04:35:23.827Z,11.69
2022-08-28T04:36:23.851Z,11.69
2022-08-28T04:37:26.175Z,11.69
2022-08-28T04:38:23.832Z,11.66
2022-08-28T04:39:23.807Z,11.66
2022-08-28T04:40:23.841Z,11.70
2022-08-28T04:41:23.788Z,11.72
2022-08-28T04:42:23.825Z,11.80
2022-08-28T04:43:23.783Z,11.80
2022-08-28T04:44:23.769Z,11.83
2022-08-28T04:45:23.756Z,11.88
2022-08-28T04:46:23.717Z,11.88
2022-08-28T04:47:23.758Z,11.90
2022-08-28T04:48:23.749Z,11.88
2022-08-28T04:49:25.952Z,11.87
2022-08-28T04:50:23.721Z,11.87
2022-08-28T04:51:23.729Z,11.88
2022-08-28T04:52:23.694Z,11.90
2022-08-28T04:53:23.688Z,11.90
2022-08-28T04:54:23.644Z,11.94
2022-08-28T04:55:33.809Z,11.99
2022-08-28T04:56:23.680Z,11.99
2022-08-28T04:57:23.672Z,12.00
2022-08-28T04:58:24.272Z,12.00
2022-08-28T04:59:23.598Z,12.02
2022-08-28T05:00:23.642Z,12.00
2022-08-28T05:01:23.694Z,11.99
2022-08-28T05:02:23.580Z,12.00
2022-08-28T05:03:23.579Z,12.03
2022-08-28T05:04:23.590Z,12.00
2022-08-28T05:05:23.623Z,12.04
2022-08-28T05:06:23.540Z,12.09
2022-08-28T05:07:23.529Z,12.12
2022-08-28T05:08:23.606Z,12.13
2022-08-28T05:09:23.599Z,12.15
2022-08-28T05:10:23.507Z,12.18
2022-08-28T05:11:33.475Z,12.21
2022-08-28T05:12:23.508Z,12.24
2022-08-28T05:13:23.545Z,12.27
2022-08-28T05:14:23.491Z,12.28
2022-08-28T05:15:23.461Z,12.31
2022-08-28T05:16:23.548Z,12.32
2022-08-28T05:17:23.489Z,12.32
2022-08-28T05:18:23.413Z,12.35
2022-08-28T05:19:23.463Z,12.36
2022-08-28T05:20:23.424Z,12.36
2022-08-28T05:21:23.377Z,12.36
2022-08-28T05:22:23.410Z,12.40
2022-08-28T05:23:25.672Z,12.42
2022-08-28T05:24:23.401Z,12.45
2022-08-28T05:25:23.326Z,12.45
2022-08-28T05:26:23.324Z,12.46
2022-08-28T05:27:23.341Z,12.45
2022-08-28T05:28:23.316Z,12.46
2022-08-28T05:29:23.511Z,12.46
2022-08-28T05:30:23.254Z,12.47
2022-08-28T05:31:23.348Z,12.47
2022-08-28T05:32:23.304Z,12.47
2022-08-28T05:33:23.294Z,12.49
2022-08-28T05:34:23.285Z,12.50
2022-08-28T05:35:23.236Z,12.53
2022-08-28T05:36:23.250Z,12.55
2022-08-28T05:37:23.283Z,12.55
2022-08-28T05:38:23.298Z,12.55
2022-08-28T05:39:23.185Z,12.57
2022-08-28T05:40:23.209Z,12.60
2022-08-28T05:41:23.218Z,12.57
2022-08-28T05:42:23.188Z,12.61
2022-08-28T05:43:23.146Z,12.64
2022-08-28T05:44:23.219Z,12.62
2022-08-28T05:45:23.107Z,12.65
2022-08-28T05:46:23.178Z,12.67
2022-08-28T05:47:23.111Z,12.67
2022-08-28T05:48:23.091Z,12.68
2022-08-28T05:49:23.149Z,12.73
2022-08-28T05:50:23.070Z,12.75
2022-08-28T05:51:23.084Z,12.78
2022-08-28T05:52:23.092Z,12.80
2022-08-28T05:53:23.070Z,12.82
2022-08-28T05:54:23.007Z,12.86
2022-08-28T05:55:23.059Z,12.87
2022-08-28T05:56:23.036Z,12.90
2022-08-28T05:57:23.074Z,12.91
2022-08-28T05:58:23.025Z,12.95
2022-08-28T05:59:23.001Z,12.98
2022-08-28T06:00:23.004Z,13.00
2022-08-28T06:01:23.210Z,13.03
2022-08-28T06:02:22.974Z,13.05
2022-08-28T06:03:22.932Z,13.11
2022-08-28T06:04:23.003Z,13.15
2022-08-28T06:05:22.900Z,13.19
2022-08-28T06:06:22.904Z,13.25
2022-08-28T06:07:22.865Z,13.33
2022-08-28T06:08:22.981Z,13.41
2022-08-28T06:09:28.130Z,13.47
2022-08-28T06:10:22.896Z,13.53
2022-08-28T06:11:22.886Z,13.60
2022-08-28T06:12:23.005Z,13.67
2022-08-28T06:13:22.845Z,13.72
2022-08-28T06:14:22.841Z,13.78
2022-08-28T06:15:22.985Z,13.85
2022-08-28T06:16:22.848Z,13.90
2022-08-28T06:17:23.590Z,13.96
2022-08-28T06:18:22.790Z,13.99
2022-08-28T06:19:22.778Z,14.04
2022-08-28T06:20:22.764Z,14.10
2022-08-28T06:21:22.758Z,14.14
2022-08-28T06:22:22.750Z,14.18
2022-08-28T06:23:23.899Z,14.25
2022-08-28T06:24:22.721Z,14.29
2022-08-28T06:25:22.710Z,14.35
2022-08-28T06:26:22.723Z,14.40
2022-08-28T06:27:22.722Z,14.45
2022-08-28T06:28:22.682Z,14.51
2022-08-28T06:29:22.654Z,14.58
2022-08-28T06:30:22.662Z,14.60
2022-08-28T06:31:24.426Z,14.66
2022-08-28T06:32:22.729Z,14.72
2022-08-28T06:33:22.647Z,14.78
2022-08-28T06:34:22.618Z,14.84
2022-08-28T06:35:22.634Z,14.89
2022-08-28T06:36:22.658Z,14.94
2022-08-28T06:37:22.567Z,15.00
2022-08-28T06:38:22.587Z,15.07
2022-08-28T06:39:22.573Z,15.14
2022-08-28T06:40:22.618Z,15.18
2022-08-28T06:41:22.521Z,15.21
2022-08-28T06:42:22.493Z,15.27
2022-08-28T06:43:22.499Z,15.28
2022-08-28T06:44:22.516Z,15.31
2022-08-28T06:45:22.601Z,15.36
2022-08-28T06:46:22.516Z,15.39
2022-08-28T06:47:22.498Z,15.42
2022-08-28T06:48:22.463Z,15.44
2022-08-28T06:49:22.453Z,15.47
2022-08-28T06:50:22.492Z,15.47
2022-08-28T06:51:23.109Z,15.52
2022-08-28T06:52:22.408Z,15.55
2022-08-28T06:53:22.391Z,15.58
2022-08-28T06:54:23.586Z,15.61
2022-08-28T06:55:22.391Z,15.64
2022-08-28T06:56:25.895Z,15.67
2022-08-28T06:57:22.392Z,15.70
2022-08-28T06:58:22.327Z,15.73
2022-08-28T06:59:22.381Z,15.76
2022-08-28T07:00:22.393Z,15.79
2022-08-28T07:01:22.359Z,15.80
2022-08-28T07:02:22.433Z,15.83
2022-08-28T07:03:22.293Z,15.86
2022-08-28T07:04:22.265Z,15.90
2022-08-28T07:05:22.301Z,15.94
2022-08-28T07:06:22.268Z,15.95
2022-08-28T07:07:32.618Z,15.98
2022-08-28T07:08:22.270Z,16.00
2022-08-28T07:09:22.469Z,16.02
2022-08-28T07:10:22.373Z,16.08
2022-08-28T07:11:22.182Z,16.10
2022-08-28T07:12:22.179Z,16.13
2022-08-28T07:13:22.200Z,16.20
2022-08-28T07:14:22.207Z,16.24
2022-08-28T07:15:22.158Z,16.29
2022-08-28T07:16:22.208Z,16.32
2022-08-28T07:17:22.135Z,16.33
2022-08-28T07:18:22.107Z,16.38
2022-08-28T07:19:22.099Z,16.41
2022-08-28T07:20:22.852Z,16.43
2022-08-28T07:21:22.064Z,16.47
2022-08-28T07:22:22.083Z,16.51
2022-08-28T07:23:22.045Z,16.54
2022-08-28T07:24:22.069Z,16.61
2022-08-28T07:25:22.024Z,16.66
2022-08-28T07:26:22.041Z,16.72
2022-08-28T07:27:22.021Z,16.76
2022-08-28T07:28:22.009Z,16.78
2022-08-28T07:29:21.989Z,16.78
2022-08-28T07:30:21.996Z,16.81
2022-08-28T07:31:22.033Z,16.86
2022-08-28T07:32:21.953Z,16.87
2022-08-28T07:33:21.977Z,16.89
2022-08-28T07:34:21.938Z,16.89
2022-08-28T07:35:22.002Z,16.90
2022-08-28T07:36:29.044Z,16.91
2022-08-28T07:37:21.940Z,16.96
2022-08-28T07:38:21.889Z,17.02
2022-08-28T07:39:21.954Z,17.16
2022-08-28T07:40:21.963Z,17.30
2022-08-28T07:41:21.885Z,17.46
2022-08-28T07:42:21.885Z,17.54
2022-08-28T07:43:21.859Z,17.65
2022-08-28T07:44:21.864Z,17.82
2022-08-28T07:45:21.872Z,18.00
2022-08-28T07:46:21.885Z,18.15
2022-08-28T07:47:21.896Z,18.22
2022-08-28T07:48:21.783Z,18.34
2022-08-28T07:49:21.813Z,18.44
2022-08-28T07:50:21.765Z,18.59
2022-08-28T07:51:21.767Z,18.62
2022-08-28T07:52:21.752Z,18.70
2022-08-28T07:53:21.769Z,18.74
2022-08-28T07:54:21.706Z,18.77
2022-08-28T07:55:21.731Z,18.74
2022-08-28T07:56:40.945Z,18.75
2022-08-28T08:14:22.911Z,19.21
2022-08-28T08:15:21.079Z,19.24
2022-08-28T08:16:21.703Z,19.22
2022-08-28T08:17:22.233Z,19.22
2022-08-28T08:18:32.280Z,19.22
2022-08-28T08:19:21.052Z,19.24
2022-08-28T08:20:22.402Z,19.24
2022-08-28T08:21:20.816Z,19.31
2022-08-28T08:22:21.380Z,19.52
2022-08-28T08:23:21.036Z,19.64
2022-08-28T08:24:46.295Z,19.51
2022-08-28T08:25:22.111Z,19.69
2022-08-28T08:26:20.013Z,19.86
2022-08-28T08:27:20.684Z,20.06
2022-08-28T08:28:20.664Z,20.11
2022-08-28T08:29:20.647Z,20.24
2022-08-28T08:30:20.678Z,20.29
2022-08-28T08:31:20.689Z,20.43
2022-08-28T08:32:20.639Z,20.60
2022-08-28T08:33:20.607Z,20.65
2022-08-28T08:34:20.636Z,20.52
2022-08-28T08:35:20.606Z,20.37
2022-08-28T08:36:20.615Z,20.10
2022-08-28T08:37:20.595Z,19.91
2022-08-28T08:38:20.574Z,19.85
2022-08-28T08:39:20.560Z,19.82
2022-08-28T08:40:20.623Z,19.89
2022-08-28T08:41:20.551Z,20.02
2022-08-28T08:42:20.567Z,20.02
2022-08-28T08:43:20.504Z,20.00
2022-08-28T08:44:20.517Z,20.02
2022-08-28T08:45:20.523Z,20.04
2022-08-28T08:46:20.561Z,20.07
2022-08-28T08:47:20.481Z,20.24
2022-08-28T08:48:20.486Z,20.34
2022-08-28T08:49:20.461Z,20.48
2022-08-28T08:50:20.453Z,20.52
2022-08-28T08:51:20.442Z,20.59
2022-08-28T08:52:20.454Z,20.74
2022-08-28T08:53:20.430Z,20.56
2022-08-28T08:54:20.410Z,20.62
2022-08-28T08:55:20.390Z,20.58
2022-08-28T08:56:20.395Z,20.47
2022-08-28T08:57:20.392Z,20.51
2022-08-28T08:58:20.385Z,20.52
2022-08-28T08:59:20.366Z,20.48
2022-08-28T09:00:20.354Z,20.34
2022-08-28T09:01:20.434Z,20.26
2022-08-28T09:02:20.361Z,20.16
2022-08-28T09:03:20.345Z,20.07
2022-08-28T09:04:21.464Z,19.91
2022-08-28T09:05:20.313Z,19.81
2022-08-28T09:06:20.293Z,19.49
2022-08-28T09:07:20.290Z,19.41
2022-08-28T09:08:20.299Z,19.34
2022-08-28T09:09:20.266Z,19.29
2022-08-28T09:10:20.251Z,19.26
2022-08-28T09:11:20.255Z,19.36
2022-08-28T09:12:20.244Z,19.49
2022-08-28T09:13:20.235Z,19.63
2022-08-28T09:14:20.550Z,19.64
2022-08-28T09:15:20.203Z,19.76
2022-08-28T09:16:20.539Z,19.66
2022-08-28T09:17:20.209Z,19.54
2022-08-28T09:18:20.184Z,19.44
2022-08-28T09:19:20.162Z,19.40
2022-08-28T09:20:20.162Z,19.54
2022-08-28T09:21:20.180Z,19.66
2022-08-28T09:22:20.151Z,19.85
2022-08-28T09:23:20.142Z,20.07
2022-08-28T09:24:20.124Z,20.24
2022-08-28T09:25:20.137Z,20.40
2022-08-28T09:26:20.088Z,20.43
2022-08-28T09:27:20.083Z,20.55
2022-08-28T09:28:20.093Z,20.63
2022-08-28T09:29:20.077Z,20.80
2022-08-28T09:30:20.048Z,20.90
2022-08-28T09:31:20.347Z,20.99
2022-08-28T09:32:20.038Z,21.12
2022-08-28T09:33:20.042Z,21.11
2022-08-28T09:34:20.020Z,21.07
2022-08-28T09:35:20.011Z,21.12
2022-08-28T09:36:20.000Z,21.20
2022-08-28T09:37:19.995Z,21.29
2022-08-28T09:38:19.999Z,21.32
2022-08-28T09:39:19.972Z,21.20
2022-08-28T09:40:20.022Z,21.25
2022-08-28T09:41:19.959Z,21.29
2022-08-28T09:42:19.926Z,21.32
2022-08-28T09:43:19.996Z,21.37
2022-08-28T09:44:19.921Z,21.42
2022-08-28T09:45:47.839Z,21.48
2022-08-28T09:46:19.973Z,21.50
2022-08-28T09:47:19.877Z,21.54
2022-08-28T09:48:19.916Z,21.64
2022-08-28T09:49:19.881Z,21.67
2022-08-28T09:50:19.890Z,21.70
2022-08-28T09:51:19.856Z,21.77
2022-08-28T09:52:24.956Z,21.82
2022-08-28T09:53:19.833Z,21.80
2022-08-28T09:54:19.845Z,21.89
2022-08-28T09:55:19.808Z,21.83
2022-08-28T09:56:19.801Z,21.58
2022-08-28T09:57:19.801Z,21.24
2022-08-28T09:58:19.785Z,21.06
2022-08-28T09:59:19.760Z,21.09
2022-08-28T10:00:19.765Z,21.07
2022-08-28T10:01:19.782Z,21.18
2022-08-28T10:02:19.737Z,21.21
2022-08-28T10:03:19.727Z,21.11
2022-08-28T10:04:19.802Z,20.99
2022-08-28T10:05:19.718Z,20.88
2022-08-28T10:06:19.703Z,20.93
2022-08-28T10:07:19.715Z,20.88
2022-08-28T10:08:19.691Z,20.77
2022-08-28T10:09:19.656Z,20.77
2022-08-28T10:10:19.677Z,20.95
2022-08-28T10:11:19.629Z,21.05
2022-08-28T10:12:19.635Z,21.14
2022-08-28T10:13:19.624Z,21.14
2022-08-28T10:14:19.627Z,21.17
2022-08-28T10:15:19.599Z,21.21
2022-08-28T10:16:19.653Z,21.25
2022-08-28T10:17:19.836Z,21.32
2022-08-28T10:18:19.580Z,21.33
2022-08-28T10:19:19.556Z,21.39
2022-08-28T10:20:19.573Z,21.48
2022-08-28T10:21:19.539Z,21.36
2022-08-28T10:22:19.531Z,21.15
2022-08-28T10:23:19.520Z,21.05
2022-08-28T10:24:24.775Z,21.00
2022-08-28T10:25:19.520Z,20.97
2022-08-28T10:26:19.485Z,21.14
2022-08-28T10:27:19.478Z,21.24
2022-08-28T10:28:19.478Z,21.42
2022-08-28T10:29:19.448Z,21.57
2022-08-28T10:30:19.482Z,21.70
2022-08-28T10:31:19.503Z,21.67
2022-08-28T10:32:19.432Z,21.64
2022-08-28T10:33:19.411Z,21.60
2022-08-28T10:34:19.407Z,21.55
2022-08-28T10:35:19.409Z,21.43
2022-08-28T10:36:34.267Z,21.43
2022-08-28T10:37:19.378Z,21.46
2022-08-28T10:38:19.363Z,21.54
2022-08-28T10:39:19.353Z,21.76
2022-08-28T10:40:19.438Z,21.95
2022-08-28T10:41:19.351Z,22.04
2022-08-28T10:42:19.323Z,22.17
2022-08-28T10:43:19.324Z,22.22
2022-08-28T10:44:19.306Z,22.35
2022-08-28T10:45:19.297Z,22.32
2022-08-28T10:46:19.354Z,22.28
2022-08-28T10:47:19.278Z,22.29
2022-08-28T10:48:19.270Z,22.25
2022-08-28T10:49:19.247Z,22.28
2022-08-28T10:50:19.246Z,22.20
2022-08-28T10:51:19.237Z,22.08
2022-08-28T10:52:19.223Z,22.14
2022-08-28T10:53:19.215Z,22.20
2022-08-28T10:54:19.200Z,22.04
2022-08-28T10:55:19.189Z,22.00
2022-08-28T10:56:19.182Z,21.99
2022-08-28T10:57:19.160Z,21.93
2022-08-28T10:58:24.714Z,22.04
2022-08-28T10:59:19.139Z,22.08
2022-08-28T11:00:19.151Z,22.14
2022-08-28T11:01:19.155Z,22.22
2022-08-28T11:02:19.147Z,22.36
2022-08-28T11:03:34.015Z,22.55
2022-08-28T11:04:25.227Z,22.84
2022-08-28T11:05:19.083Z,22.93
2022-08-28T11:06:19.091Z,22.65
2022-08-28T11:07:19.069Z,22.36
2022-08-28T11:08:19.055Z,22.06
2022-08-28T11:09:19.035Z,21.92
2022-08-28T11:10:19.028Z,21.95
2022-08-28T11:11:19.010Z,22.06
2022-08-28T11:12:18.998Z,22.14
2022-08-28T11:13:18.988Z,22.35
2022-08-28T11:14:19.004Z,22.51
2022-08-28T11:15:18.955Z,22.69
2022-08-28T11:16:19.048Z,22.84
2022-08-28T11:17:18.944Z,22.81
2022-08-28T11:18:18.940Z,22.83
2022-08-28T11:19:18.935Z,22.78
2022-08-28T11:20:18.911Z,22.84
2022-08-28T11:21:18.929Z,22.81
2022-08-28T11:22:18.901Z,22.93
2022-08-28T11:23:18.891Z,22.93
2022-08-28T11:24:18.883Z,22.96
2022-08-28T11:25:18.860Z,22.55
2022-08-28T11:26:18.865Z,22.41
2022-08-28T11:27:18.849Z,22.20
2022-08-28T11:28:18.845Z,22.07
2022-08-28T11:29:18.824Z,21.82
2022-08-28T11:30:18.841Z,21.69
2022-08-28T11:31:25.674Z,21.61
2022-08-28T11:32:18.790Z,21.66
2022-08-28T11:33:18.784Z,21.83
2022-08-28T11:34:18.776Z,22.04
2022-08-28T11:35:18.759Z,22.07
2022-08-28T11:36:18.738Z,22.22
2022-08-28T11:37:18.728Z,22.43
2022-08-28T11:38:20.080Z,22.62
2022-08-28T11:39:18.702Z,22.84
2022-08-28T11:40:18.851Z,22.99
2022-08-28T11:41:18.720Z,23.03
2022-08-28T11:42:18.697Z,23.03
2022-08-28T11:43:18.669Z,22.91
2022-08-28T11:44:18.656Z,22.99
2022-08-28T11:45:18.665Z,22.94
2022-08-28T11:46:22.190Z,22.88
2022-08-28T11:47:18.649Z,22.81
2022-08-28T11:48:18.618Z,22.59
2022-08-28T11:49:18.606Z,22.60
2022-08-28T11:50:18.610Z,22.65
2022-08-28T11:51:18.578Z,22.66
2022-08-28T11:52:18.589Z,22.85
2022-08-28T11:53:18.575Z,22.98
2022-08-28T11:54:18.558Z,23.13
2022-08-28T11:55:18.553Z,23.24
2022-08-28T11:56:30.441Z,23.28
2022-08-28T11:57:18.513Z,23.40
2022-08-28T11:58:18.510Z,23.62
2022-08-28T11:59:18.523Z,23.76
2022-08-28T12:00:18.496Z,23.69
2022-08-28T12:01:18.477Z,23.28
2022-08-28T12:02:18.509Z,23.18
2022-08-28T12:03:18.464Z,23.12
2022-08-28T12:04:18.515Z,23.20
2022-08-28T12:05:18.463Z,23.17
2022-08-28T12:06:18.440Z,23.20
2022-08-28T12:07:18.407Z,23.20
2022-08-28T12:08:18.424Z,23.21
2022-08-28T12:09:18.394Z,23.28
2022-08-28T12:10:18.402Z,23.40
2022-08-28T12:11:18.375Z,23.50
2022-08-28T12:12:18.380Z,23.54
2022-08-28T12:13:18.345Z,23.47
2022-08-28T12:14:18.346Z,23.51
2022-08-28T12:15:18.331Z,23.69
2022-08-28T12:16:18.436Z,23.63
2022-08-28T12:17:18.305Z,23.58
2022-08-28T12:18:18.309Z,23.41
2022-08-28T12:19:18.291Z,23.24
2022-08-28T12:20:18.288Z,22.96
2022-08-28T12:21:18.291Z,22.66
2022-08-28T12:22:18.279Z,22.44
2022-08-28T12:23:18.263Z,22.44
2022-08-28T12:24:18.267Z,22.55
2022-08-28T12:25:18.222Z,22.66
2022-08-28T12:26:18.234Z,22.73
2022-08-28T12:27:18.208Z,22.84
2022-08-28T12:28:18.207Z,23.00
2022-08-28T12:29:18.190Z,23.23
2022-08-28T12:30:18.182Z,23.36
2022-08-28T12:31:18.230Z,23.39
2022-08-28T12:32:18.216Z,23.21
2022-08-28T12:33:18.134Z,23.21
2022-08-28T12:34:18.134Z,23.24
2022-08-28T12:35:18.127Z,23.18
2022-08-28T12:36:18.128Z,22.91
2022-08-28T12:37:18.096Z,22.70
2022-08-28T12:38:18.095Z,22.51
2022-08-28T12:39:18.076Z,22.36
2022-08-28T12:40:18.185Z,22.26
2022-08-28T12:41:18.075Z,22.32
2022-08-28T12:42:18.055Z,22.57
2022-08-28T12:43:18.040Z,22.76
2022-08-28T12:44:18.032Z,22.91
2022-08-28T12:45:18.007Z,23.17
2022-08-28T12:46:19.883Z,23.47
2022-08-28T12:47:17.994Z,23.51
2022-08-28T12:48:18.002Z,23.46
2022-08-28T12:49:17.963Z,23.21
2022-08-28T12:50:17.971Z,22.96
2022-08-28T12:51:17.977Z,22.73
2022-08-28T12:52:17.952Z,22.60
2022-08-28T12:53:17.919Z,22.55
2022-08-28T12:54:17.934Z,22.45
2022-08-28T12:55:21.312Z,22.32
2022-08-28T12:56:17.928Z,22.44
2022-08-28T12:57:17.908Z,22.55
2022-08-28T12:58:17.918Z,22.76
2022-08-28T12:59:17.864Z,23.03
2022-08-28T13:00:17.864Z,23.21
2022-08-28T13:01:17.922Z,23.28
2022-08-28T13:02:17.960Z,23.20
2022-08-28T13:03:17.816Z,23.27
2022-08-28T13:04:17.844Z,23.34
2022-08-28T13:05:17.818Z,23.46
2022-08-28T13:06:17.817Z,23.65
2022-08-28T13:07:17.782Z,23.86
2022-08-28T13:08:17.787Z,23.87
2022-08-28T13:09:17.769Z,23.80